createdAt,value
2022-12-27T00:02:10.518Z,1.20
2022-12-27T00:04:56.152Z,1.43
2022-12-27T00:07:45.236Z,1.63
2022-12-27T00:10:30.610Z,1.10
2022-12-27T00:13:18.232Z,0.83
2022-12-27T00:16:10.641Z,1.30
2022-12-27T00:18:56.299Z,1.13
2022-12-27T00:21:42.159Z,1.37
2022-12-27T00:24:28.032Z,1.10
2022-12-27T00:27:15.577Z,1.53
2022-12-27T00:30:01.480Z,1.50
2022-12-27T00:32:49.318Z,1.13
2022-12-27T00:35:34.655Z,1.33
2022-12-27T00:38:20.630Z,1.00
2022-12-27T00:41:06.300Z,1.43
2022-12-27T00:43:54.583Z,1.30
2022-12-27T00:46:39.940Z,1.00
2022-12-27T00:49:26.024Z,1.00
2022-12-27T00:52:11.379Z,0.77
2022-12-27T00:54:59.500Z,1.37
2022-12-27T00:57:45.083Z,1.20
2022-12-27T01:00:32.996Z,0.70
2022-12-27T01:03:19.569Z,1.43
2022-12-27T01:06:10.125Z,1.00
2022-12-27T01:08:57.177Z,1.10
2022-12-27T01:11:47.264Z,1.60
2022-12-27T01:14:32.596Z,0.80
2022-12-27T01:17:18.569Z,1.07
2022-12-27T01:20:04.840Z,1.50
2022-12-27T01:22:50.395Z,1.00
2022-12-27T01:25:36.301Z,0.80
2022-12-27T01:28:22.035Z,0.97
2022-12-27T01:31:14.531Z,1.20
2022-12-27T01:34:00.835Z,1.07
2022-12-27T01:36:46.665Z,1.10
2022-12-27T01:39:32.002Z,1.10
2022-12-27T01:42:38.079Z,0.97
2022-12-27T01:45:35.064Z,1.30
2022-12-27T01:48:26.582Z,1.40
2022-12-27T01:51:14.561Z,1.23
2022-12-27T01:54:05.313Z,1.20
2022-12-27T01:56:51.647Z,1.10
2022-12-27T01:59:38.006Z,1.40
2022-12-27T02:02:23.676Z,0.90
2022-12-27T02:05:12.330Z,1.53
2022-12-27T02:08:11.667Z,0.90
2022-12-27T02:10:59.026Z,0.83
2022-12-27T02:13:46.641Z,1.20
2022-12-27T02:16:32.243Z,1.87
2022-12-27T02:19:40.563Z,1.33
2022-12-27T02:23:03.539Z,1.17
2022-12-27T02:26:23.344Z,1.33
2022-12-27T02:29:27.479Z,1.10
2022-12-27T02:32:31.849Z,1.10
2022-12-27T02:35:20.912Z,1.10
2022-12-27T02:38:18.372Z,1.03
2022-12-27T02:41:26.845Z,0.90
2022-12-27T02:44:34.330Z,1.50
2022-12-27T02:47:41.717Z,1.20
2022-12-27T02:51:05.868Z,0.90
2022-12-27T02:54:14.943Z,0.90
2022-12-27T02:57:29.956Z,1.10
2022-12-27T03:00:36.873Z,1.00
2022-12-27T03:03:44.512Z,1.20
2022-12-27T03:06:57.739Z,0.90
2022-12-27T03:10:21.501Z,0.80
2022-12-27T03:13:44.244Z,1.10
2022-12-27T03:16:42.808Z,1.00
2022-12-27T03:20:00.034Z,1.10
2022-12-27T03:23:07.184Z,1.20
2022-12-27T03:25:55.806Z,1.30
2022-12-27T03:29:01.195Z,1.53
2022-12-27T03:32:12.384Z,1.47
2022-12-27T03:35:17.735Z,0.87
2022-12-27T03:38:05.849Z,0.80
2022-12-27T03:41:17.460Z,1.20
2022-12-27T03:44:23.213Z,0.90
2022-12-27T03:47:27.964Z,0.70
2022-12-27T03:50:19.668Z,1.60
2022-12-27T03:53:15.538Z,1.30
2022-12-27T03:56:04.689Z,1.00
2022-12-27T03:58:53.243Z,1.37
2022-12-27T04:01:38.600Z,1.17
2022-12-27T04:04:24.792Z,1.57
2022-12-27T04:07:13.319Z,1.30
2022-12-27T04:10:19.635Z,1.10
2022-12-27T04:13:23.355Z,1.13
2022-12-27T04:16:27.461Z,1.10
2022-12-27T04:19:33.723Z,1.50
2022-12-27T04:22:37.812Z,1.33
2022-12-27T04:25:41.677Z,1.00
2022-12-27T04:28:45.709Z,1.00
2022-12-27T04:31:50.280Z,0.77
2022-12-27T04:34:43.569Z,1.07
2022-12-27T04:37:29.357Z,1.40
2022-12-27T04:40:33.030Z,1.80
2022-12-27T04:43:36.631Z,1.20
2022-12-27T04:46:45.427Z,1.70
2022-12-27T04:49:49.160Z,1.30
2022-12-27T04:52:53.257Z,1.20
2022-12-27T04:55:38.863Z,1.47
2022-12-27T04:58:29.370Z,1.60
2022-12-27T05:01:33.216Z,1.00
2022-12-27T05:04:21.108Z,1.60
2022-12-27T05:07:28.286Z,1.47
2022-12-27T05:10:32.680Z,1.60
2022-12-27T05:13:37.122Z,1.77
2022-12-27T05:16:22.549Z,1.10
2022-12-27T05:19:10.411Z,1.17
2022-12-27T05:22:14.415Z,1.13
2022-12-27T05:25:20.883Z,1.60
2022-12-27T05:28:08.567Z,1.30
2022-12-27T05:31:00.535Z,1.40
2022-12-27T05:33:46.407Z,1.33
2022-12-27T05:36:31.834Z,1.20
2022-12-27T05:39:17.046Z,1.57
2022-12-27T05:42:03.215Z,1.10
2022-12-27T05:44:48.736Z,1.90
2022-12-27T05:47:34.947Z,1.20
2022-12-27T05:50:20.450Z,1.43
2022-12-27T05:53:07.932Z,0.97
2022-12-27T05:55:58.008Z,1.27
2022-12-27T05:58:46.381Z,0.90
2022-12-27T06:01:34.251Z,0.70
2022-12-27T06:04:19.793Z,0.80
2022-12-27T06:07:07.787Z,1.23
2022-12-27T06:09:53.365Z,1.20
2022-12-27T06:12:39.014Z,1.30
2022-12-27T06:15:24.517Z,1.17
2022-12-27T06:18:09.917Z,1.80
2022-12-27T06:21:00.712Z,1.23
2022-12-27T06:23:47.053Z,1.10
2022-12-27T06:26:33.159Z,1.30
2022-12-27T06:29:18.430Z,1.60
2022-12-27T06:32:04.358Z,1.10
2022-12-27T06:34:49.895Z,1.20
2022-12-27T06:37:35.114Z,1.23
2022-12-27T06:40:23.455Z,1.33
2022-12-27T06:43:08.632Z,1.63
2022-12-27T06:46:03.502Z,1.00
2022-12-27T06:48:49.597Z,1.67
2022-12-27T06:51:37.121Z,1.80
2022-12-27T06:54:22.504Z,1.23
2022-12-27T06:57:10.082Z,1.17
2022-12-27T06:59:55.613Z,0.80
2022-12-27T07:02:41.009Z,1.07
2022-12-27T07:05:29.561Z,1.40
2022-12-27T07:08:14.829Z,1.10
2022-12-27T07:11:04.687Z,1.00
2022-12-27T07:13:52.400Z,0.97
2022-12-27T07:16:38.508Z,0.93
2022-12-27T07:19:26.612Z,1.30
2022-12-27T07:22:12.042Z,1.30
2022-12-27T07:24:57.757Z,1.20
2022-12-27T07:27:43.557Z,1.10
2022-12-27T07:30:29.659Z,1.27
2022-12-27T07:33:19.742Z,1.17
2022-12-27T07:36:07.952Z,1.10
2022-12-27T07:38:56.151Z,1.00
2022-12-27T07:41:43.508Z,1.47
2022-12-27T07:44:29.004Z,1.23
2022-12-27T07:47:14.258Z,1.30
2022-12-27T07:49:59.830Z,1.07
2022-12-27T07:52:45.315Z,1.23
2022-12-27T07:55:33.306Z,1.00
2022-12-27T07:58:18.823Z,1.60
2022-12-27T08:01:05.481Z,1.13
2022-12-27T08:03:51.053Z,1.07
2022-12-27T08:06:38.456Z,1.17
2022-12-27T08:09:29.031Z,0.83
2022-12-27T08:12:15.084Z,1.43
2022-12-27T08:15:06.059Z,1.30
2022-12-27T08:17:53.794Z,1.13
2022-12-27T08:20:41.734Z,1.30
2022-12-27T08:23:27.549Z,1.50
2022-12-27T08:26:13.100Z,0.93
2022-12-27T08:28:58.570Z,1.23
2022-12-27T08:31:44.017Z,0.80
2022-12-27T08:34:31.904Z,1.27
2022-12-27T08:37:17.167Z,0.93
2022-12-27T08:40:05.795Z,1.33
2022-12-27T08:42:51.145Z,1.20
2022-12-27T08:45:38.044Z,1.07
2022-12-27T08:48:23.608Z,1.00
2022-12-27T08:51:13.821Z,1.03
2022-12-27T08:54:01.242Z,0.90
2022-12-27T08:56:49.988Z,1.20
2022-12-27T08:59:39.879Z,1.20
2022-12-27T09:02:25.609Z,1.07
2022-12-27T09:05:15.775Z,1.27
2022-12-27T09:08:01.215Z,1.27
2022-12-27T09:10:48.545Z,1.20
2022-12-27T09:13:33.836Z,1.20
2022-12-27T09:16:23.136Z,0.90
2022-12-27T09:19:12.268Z,1.00
2022-12-27T09:21:59.525Z,1.43
2022-12-27T09:24:47.545Z,0.90
2022-12-27T09:27:35.368Z,1.80
2022-12-27T09:30:21.623Z,1.43
2022-12-27T09:33:06.968Z,1.40
2022-12-27T09:35:52.638Z,1.33
2022-12-27T09:38:38.973Z,1.10
2022-12-27T09:45:36.677Z,1.40
2022-12-27T09:48:32.685Z,1.73
2022-12-27T09:51:23.650Z,1.47
2022-12-27T09:54:19.240Z,1.33
2022-12-27T09:57:19.957Z,1.60
2022-12-27T10:00:35.087Z,1.20
2022-12-27T10:03:27.983Z,1.70
2022-12-27T10:06:28.476Z,1.60
2022-12-27T10:09:17.118Z,0.80
2022-12-27T10:12:43.191Z,0.80
2022-12-27T10:15:37.556Z,1.77
2022-12-27T10:18:41.452Z,1.60
2022-12-27T10:21:29.126Z,1.03
2022-12-27T10:24:17.132Z,1.40
2022-12-27T10:27:08.492Z,1.23
2022-12-27T10:29:59.404Z,1.10
2022-12-27T10:32:44.867Z,1.40
2022-12-27T10:35:30.334Z,1.20
2022-12-27T10:38:18.090Z,0.93
2022-12-27T10:41:34.198Z,1.60
2022-12-27T10:44:19.683Z,1.40
2022-12-27T10:47:05.998Z,1.40
2022-12-27T10:50:13.125Z,1.20
2022-12-27T10:53:01.066Z,1.07
2022-12-27T10:55:46.530Z,1.40
2022-12-27T10:58:41.840Z,1.47
2022-12-27T11:01:30.812Z,1.40
2022-12-27T11:04:27.673Z,1.50
2022-12-27T11:07:19.071Z,1.00
2022-12-27T11:10:17.235Z,1.20
2022-12-27T11:13:05.514Z,2.03
2022-12-27T11:15:59.061Z,1.43
2022-12-27T11:18:49.190Z,1.47
2022-12-27T11:21:39.198Z,1.33
2022-12-27T11:24:24.967Z,1.50
2022-12-27T11:27:22.139Z,1.60
2022-12-27T11:30:22.929Z,1.23
2022-12-27T11:33:34.300Z,2.10
2022-12-27T11:36:26.449Z,1.30
2022-12-27T11:39:38.064Z,1.60
2022-12-27T11:42:34.409Z,1.23
2022-12-27T11:45:23.029Z,1.67
2022-12-27T11:48:33.288Z,1.40
2022-12-27T11:51:50.792Z,2.20
2022-12-27T11:54:39.113Z,2.30
2022-12-27T11:58:03.607Z,1.50
2022-12-27T12:01:05.309Z,1.53
2022-12-27T12:04:13.049Z,1.53
2022-12-27T12:07:00.887Z,1.70
2022-12-27T12:10:13.132Z,1.27
2022-12-27T12:13:46.467Z,1.53
2022-12-27T12:17:09.902Z,1.30
2022-12-27T12:20:32.406Z,1.43
2022-12-27T12:23:47.878Z,1.10
2022-12-27T12:27:04.669Z,1.37
2022-12-27T12:30:13.407Z,1.20
2022-12-27T12:33:19.640Z,1.40
2022-12-27T12:36:28.593Z,1.60
2022-12-27T12:39:14.391Z,1.70
2022-12-27T12:42:22.511Z,2.17
2022-12-27T12:45:29.441Z,2.17
2022-12-27T12:48:15.030Z,1.43
2022-12-27T12:51:22.728Z,1.93
2022-12-27T12:54:21.089Z,1.83
2022-12-27T12:57:21.204Z,1.60
2022-12-27T13:00:44.131Z,1.73
2022-12-27T13:03:32.548Z,1.27
2022-12-27T13:06:27.887Z,1.40
2022-12-27T13:09:25.400Z,1.27
2022-12-27T13:12:13.778Z,1.67
2022-12-27T13:14:59.999Z,1.13
2022-12-27T13:18:11.693Z,1.43
2022-12-27T13:21:04.296Z,1.67
2022-12-27T13:24:11.492Z,1.83
2022-12-27T13:27:35.254Z,1.70
2022-12-27T13:30:24.248Z,1.80
2022-12-27T13:33:49.534Z,1.40
2022-12-27T13:36:54.581Z,1.93
2022-12-27T13:39:49.415Z,1.50
2022-12-27T13:43:00.504Z,1.47
2022-12-27T13:46:17.257Z,1.87
2022-12-27T13:49:41.867Z,1.33
2022-12-27T13:53:00.071Z,1.00
2022-12-27T13:56:52.149Z,1.50
2022-12-27T13:59:50.021Z,1.47
2022-12-27T14:02:38.530Z,1.30
2022-12-27T14:05:41.095Z,1.10
2022-12-27T14:08:44.908Z,1.40
2022-12-27T14:11:32.996Z,1.40
2022-12-27T14:14:20.911Z,1.33
2022-12-27T14:17:08.639Z,1.27
2022-12-27T14:20:06.549Z,1.47
2022-12-27T14:23:15.895Z,1.10
2022-12-27T14:26:04.167Z,1.60
2022-12-27T14:29:13.840Z,1.53
2022-12-27T14:32:10.986Z,1.60
2022-12-27T14:35:25.181Z,1.77
2022-12-27T14:38:25.602Z,1.70
2022-12-27T14:41:45.469Z,1.17
2022-12-27T14:44:58.935Z,1.60
2022-12-27T14:48:16.579Z,1.57
2022-12-27T14:55:03.996Z,1.33
2022-12-27T14:57:55.596Z,1.90
2022-12-27T15:01:12.940Z,1.80
2022-12-27T15:04:04.710Z,1.77
2022-12-27T15:07:14.889Z,1.80
2022-12-27T15:10:33.697Z,1.73
2022-12-27T15:13:25.822Z,1.37
2022-12-27T15:16:39.524Z,1.53
2022-12-27T15:19:59.735Z,1.77
2022-12-27T15:23:07.194Z,1.50
2022-12-27T15:26:02.660Z,1.60
2022-12-27T15:29:04.684Z,1.67
2022-12-27T15:32:30.491Z,1.60
2022-12-27T15:35:50.217Z,1.90
2022-12-27T15:38:47.133Z,1.53
2022-12-27T15:41:54.985Z,1.10
2022-12-27T15:45:03.081Z,1.10
2022-12-27T15:47:49.425Z,2.00
2022-12-27T15:50:56.873Z,1.93
2022-12-27T15:54:05.595Z,1.80
2022-12-27T15:57:03.352Z,1.77
2022-12-27T15:59:55.363Z,1.90
2022-12-27T16:02:44.204Z,1.53
2022-12-27T16:05:46.374Z,2.00
2022-12-27T16:08:38.909Z,1.53
2022-12-27T16:12:13.734Z,1.77
2022-12-27T16:15:43.418Z,1.73
2022-12-27T16:18:29.699Z,1.60
2022-12-27T16:21:23.781Z,1.83
2022-12-27T16:24:17.068Z,2.00
2022-12-27T16:27:05.549Z,1.93
2022-12-27T16:29:51.711Z,1.80
2022-12-27T16:32:37.050Z,1.67
2022-12-27T16:35:23.548Z,1.90
2022-12-27T16:38:22.617Z,2.17
2022-12-27T16:41:33.201Z,1.67
2022-12-27T16:44:37.979Z,1.90
2022-12-27T16:47:58.504Z,1.67
2022-12-27T16:51:05.847Z,2.00
2022-12-27T16:54:04.800Z,1.53
2022-12-27T16:56:50.305Z,1.80
2022-12-27T16:59:54.842Z,2.40
2022-12-27T17:02:44.876Z,2.07
2022-12-27T17:05:35.484Z,2.20
2022-12-27T17:08:25.466Z,2.37
2022-12-27T17:11:26.554Z,1.97
2022-12-27T17:14:22.114Z,1.60
2022-12-27T17:17:21.128Z,1.73
2022-12-27T17:20:16.700Z,1.60
2022-12-27T17:23:04.511Z,3.00
2022-12-27T17:26:08.352Z,2.47
2022-12-27T17:29:27.819Z,2.00
2022-12-27T17:32:26.927Z,2.00
2022-12-27T17:35:28.515Z,2.30
2022-12-27T17:38:45.555Z,2.40
2022-12-27T17:41:49.228Z,2.23
2022-12-27T17:45:02.115Z,2.27
2022-12-27T17:48:11.637Z,2.00
2022-12-27T17:51:10.337Z,2.20
2022-12-27T17:54:15.304Z,2.00
2022-12-27T17:57:20.378Z,2.33
2022-12-27T18:00:20.794Z,2.90
2022-12-27T18:03:13.003Z,2.73
2022-12-27T18:05:59.415Z,2.43
2022-12-27T18:08:49.125Z,3.00
2022-12-27T18:11:37.520Z,2.73
2022-12-27T18:14:23.154Z,3.03
2022-12-27T18:17:29.828Z,2.87
2022-12-27T18:20:30.808Z,2.87
2022-12-27T18:23:18.840Z,3.47
2022-12-27T18:26:13.655Z,3.47
2022-12-27T18:29:02.005Z,3.33
2022-12-27T18:32:00.738Z,3.00
2022-12-27T18:34:52.668Z,3.60
2022-12-27T18:37:39.658Z,2.80
2022-12-27T18:40:26.367Z,3.53
2022-12-27T18:43:18.224Z,3.50
2022-12-27T18:46:04.632Z,3.47
2022-12-27T18:48:50.575Z,3.40
2022-12-27T18:51:40.292Z,3.00
2022-12-27T18:54:30.910Z,3.33
2022-12-27T18:57:36.192Z,3.13
2022-12-27T19:00:24.374Z,3.40
2022-12-27T19:03:15.556Z,3.67
2022-12-27T19:06:04.984Z,3.67
2022-12-27T19:08:52.683Z,3.63
2022-12-27T19:11:38.547Z,3.70
2022-12-27T19:14:25.370Z,3.40
2022-12-27T19:17:24.551Z,3.27
2022-12-27T19:20:22.055Z,3.87
2022-12-27T19:23:31.106Z,5.20
2022-12-27T19:26:17.591Z,4.53
2022-12-27T19:29:08.853Z,3.10
2022-12-27T19:32:07.322Z,4.20
2022-12-27T19:34:56.355Z,4.20
2022-12-27T19:37:41.976Z,4.10
2022-12-27T19:40:27.883Z,4.07
2022-12-27T19:43:15.210Z,3.90
2022-12-27T19:46:03.341Z,3.73
2022-12-27T19:49:23.286Z,4.83
2022-12-27T19:51:57.096Z,4.20
2022-12-27T19:54:42.870Z,4.13
2022-12-27T19:57:30.944Z,3.80
2022-12-27T20:00:18.236Z,4.70
2022-12-27T20:03:04.516Z,3.87
2022-12-27T20:06:11.342Z,4.20
2022-12-27T20:08:56.956Z,4.00
2022-12-27T20:11:42.688Z,4.53
2022-12-27T20:14:29.224Z,4.20
2022-12-27T20:17:19.384Z,4.10
2022-12-27T20:20:06.658Z,3.43
2022-12-27T20:22:54.693Z,3.37
2022-12-27T20:25:45.141Z,3.40
2022-12-27T20:28:33.137Z,3.87
2022-12-27T20:31:23.503Z,4.60
2022-12-27T20:34:13.940Z,5.03
2022-12-27T20:37:00.292Z,5.27
2022-12-27T20:39:46.363Z,4.50
2022-12-27T20:42:32.338Z,3.90
2022-12-27T20:45:18.967Z,4.20
2022-12-27T20:48:05.404Z,4.03
2022-12-27T20:50:51.160Z,3.97
2022-12-27T20:53:37.019Z,4.57
2022-12-27T20:56:25.231Z,3.10
2022-12-27T20:59:11.374Z,3.90
2022-12-27T21:01:57.590Z,3.00
2022-12-27T21:04:43.031Z,4.87
2022-12-27T21:07:30.853Z,3.80
2022-12-27T21:10:19.023Z,3.47
2022-12-27T21:13:07.892Z,4.03
2022-12-27T21:15:53.293Z,3.57
2022-12-27T21:18:38.604Z,4.33
2022-12-27T21:21:28.236Z,3.43
2022-12-27T21:24:14.843Z,4.47
2022-12-27T21:27:00.466Z,4.67
2022-12-27T21:29:45.837Z,3.90
2022-12-27T21:32:31.439Z,4.23
2022-12-27T21:35:16.695Z,2.77
2022-12-27T21:38:04.931Z,2.67
2022-12-27T21:41:02.417Z,3.37
2022-12-27T21:43:50.198Z,3.17
2022-12-27T21:46:41.395Z,2.50
2022-12-27T21:49:27.208Z,2.33
2022-12-27T21:52:12.330Z,3.70
2022-12-27T21:54:57.846Z,2.73
2022-12-27T21:57:43.433Z,4.03
2022-12-27T22:00:29.273Z,3.80
2022-12-27T22:03:15.557Z,4.27
2022-12-27T22:06:10.045Z,4.10
2022-12-27T22:09:00.450Z,3.90
2022-12-27T22:11:48.982Z,2.73
2022-12-27T22:14:37.030Z,3.07
2022-12-27T22:17:22.608Z,2.70
2022-12-27T22:20:09.900Z,2.73
2022-12-27T22:22:55.797Z,2.27
2022-12-27T22:25:45.128Z,2.57
2022-12-27T22:28:31.335Z,2.87
2022-12-27T22:31:20.555Z,2.77
2022-12-27T22:34:06.735Z,2.63
2022-12-27T22:36:53.264Z,2.60
2022-12-27T22:39:38.507Z,2.77
2022-12-27T22:42:23.982Z,2.57
2022-12-27T22:45:10.119Z,2.47
2022-12-27T22:47:55.681Z,2.17
2022-12-27T22:50:41.353Z,2.30
2022-12-27T22:53:26.696Z,3.10
2022-12-27T22:56:17.728Z,2.27
2022-12-27T22:59:07.380Z,2.60
2022-12-27T23:01:53.031Z,2.10
2022-12-27T23:04:38.870Z,2.63
2022-12-27T23:08:04.858Z,2.30
2022-12-27T23:10:29.850Z,2.90
2022-12-27T23:13:15.594Z,2.23
2022-12-27T23:16:04.810Z,2.30
2022-12-27T23:18:52.926Z,3.63
2022-12-27T23:21:38.289Z,2.93
2022-12-27T23:24:25.609Z,2.97
2022-12-27T23:27:10.817Z,3.00
2022-12-27T23:29:56.588Z,4.50
2022-12-27T23:32:42.393Z,2.87
2022-12-27T23:35:28.472Z,2.90
2022-12-27T23:38:16.109Z,2.70
2022-12-27T23:41:06.625Z,2.20
2022-12-27T23:43:55.005Z,2.70
2022-12-27T23:46:41.672Z,2.80
2022-12-27T23:49:27.324Z,2.40
2022-12-27T23:52:13.167Z,2.83
2022-12-27T23:54:58.842Z,2.47
2022-12-27T23:57:46.126Z,3.47
